Terminal Aerodrome Forecast
Issued by NWS Atlanta, GA

Home | Current Version | Previous Version | Text Only | Print | Product List | Glossary On
Versions: 1 2 3 4 5 6 7 8 9 10 11 12 13 14 15 16 17 18 19 20
626
FTUS42 KFFC 221127
TAFCSG
TAF
KCSG 221127Z 2212/2312 08004KT 5SM -RA BR SCT007 OVC012
      TEMPO 2212/2214 3SM -RA BR OVC007
     FM221500 10008KT 5SM -RA BR OVC015
     FM221900 09006KT P6SM BKN025
     FM230200 09005KT P6SM BKN015
     FM230600 07003KT 4SM BR OVC005=

USA.gov is the U.S. government's official web portal to all federal, state and local government web resources and services.